• Join FlightAware (Why Join?)
  • Login
  • US Flag 
09:46PM EST


 

Airport Tracker/Info


-or-


 

Live Flight TrackerFlight Track Log ✈ TAM3751 ✈ 14-Nov-2013 ✈ SBEG / MAO - SBGR / GRU

Flight Track Log - Related Links

Times and Time Zones

All times are in EST time to prevent confusion due to time zone crossing. See the TAM3751 flight status page for this flight to view local times or setup timezone preferences in your user account.

Time Position Orientation Groundspeed Altitude Reporting Facility
EST Latitude Longitude Course Direction KTS MPH feet Rate Location/Type
11:07PM -3.0390 -60.0170 90° East 177 204 1,500  Level FlightAware
11:07PM -3.0390 -59.9880 90° East 204 235 1,900 1,080 Climbing FlightAware
11:08PM -3.0440 -59.9580 99° East 211 243 2,700 1,140 Climbing FlightAware
11:08PM -3.0640 -59.9430 143° Southeast 236 272 3,000 960 Climbing FlightAware
11:09PM -3.0960 -59.9290 156° South 261 300 3,600 1,440 Climbing FlightAware
11:09PM -3.1280 -59.9150 156° South 272 313 4,400 1,980 Climbing FlightAware
11:10PM -3.1650 -59.8980 155° Southeast 274 315 5,600 2,100 Climbing FlightAware
11:10PM -3.2020 -59.8800 154° Southeast 276 318 6,700 1,920 Climbing FlightAware
11:11PM -3.2300 -59.8670 155° Southeast 286 329 7,400 1,920 Climbing FlightAware
11:11PM -3.2830 -59.8430 156° South 284 327 8,900 1,980 Climbing FlightAware
11:12PM -3.3160 -59.8270 154° Southeast 289 333 9,800 1,500 Climbing FlightAware
11:12PM -3.3660 -59.8040 155° Southeast 309 356 10,600 960 Climbing FlightAware
11:13PM -3.4530 -59.7640 155° Southeast 353 406 11,500 780 Climbing FlightAware
11:14PM -3.4960 -59.7440 155° Southeast 370 426 11,800 1,080 Climbing FlightAware
11:15PM -3.5830 -59.7030 155° Southeast 387 445 13,000 1,380 Climbing FlightAware
11:16PM -3.6650 -59.6650 155° Southeast 396 456 14,200 1,020 Climbing FlightAware
11:16PM -3.7390 -59.6300 155° Southeast 399 459 14,700 300 Climbing FlightAware
11:17PM -3.8060 -59.5970 154° Southeast 399 459 14,700 1,800 Level FlightAware
11:18PM -3.8760 -59.5670 157° South 415 478 17,000 1,860 Climbing FlightAware
11:19PM -3.9490 -59.5320 154° Southeast 416 479 17,100  Climbing FlightAware
11:20PM -4.0370 -59.4890 154° Southeast 416 479 17,100  Level FlightAware
11:20PM -4.0900 -59.4630 154° Southeast 416 479 17,100  Level FlightAware
11:21PM -4.1620 -59.4280 154° Southeast 416 479 17,100  Level FlightAware
11:22PM -4.2150 -59.4020 154° Southeast 416 479 17,100 60 Level FlightAware
11:24PM -4.4048 -59.2839 148° Southeast  Level Estimated
11:25PM -4.5029 -59.2228 148° Southeast  Level Estimated
11:26PM -4.6010 -59.1616 148° Southeast  Level Estimated
11:27PM -4.6992 -59.1004 148° Southeast  Level Estimated
11:28PM -4.7973 -59.0393 148° Southeast  Level Estimated
11:29PM -4.8910 -58.9809 148° Southeast  Level Estimated
11:30PM -4.9846 -58.9224 148° Southeast  Level Estimated
11:31PM -5.0783 -58.8640 148° Southeast  Level Estimated
11:32PM -5.1719 -58.8055 148° Southeast  Level Estimated
11:33PM -5.2656 -58.7471 148° Southeast  Level Estimated
11:34PM -5.3592 -58.6886 148° Southeast  Level Estimated
11:35PM -5.4528 -58.6301 148° Southeast  Level Estimated
11:36PM -5.5465 -58.5715 148° Southeast  Level Estimated
11:37PM -5.6401 -58.5130 148° Southeast  Level Estimated
11:38PM -5.7337 -58.4544 148° Southeast  Level Estimated
11:39PM -5.8273 -58.3958 148° Southeast  Level Estimated
11:40PM -5.9209 -58.3372 148° Southeast  Level Estimated
11:41PM -6.0145 -58.2786 148° Southeast  Level Estimated
11:42PM -6.1081 -58.2199 148° Southeast  Level Estimated
11:43PM -6.2017 -58.1613 148° Southeast  Level Estimated
11:44PM -6.2952 -58.1026 148° Southeast  Level Estimated
11:45PM -6.3888 -58.0439 148° Southeast  Level Estimated
11:46PM -6.4824 -57.9851 148° Southeast  Level Estimated
11:47PM -6.5759 -57.9264 148° Southeast  Level Estimated
11:48PM -6.6695 -57.8676 148° Southeast  Level Estimated
11:49PM -6.7630 -57.8088 148° Southeast  Level Estimated
11:50PM -6.8566 -57.7500 148° Southeast  Level Estimated
11:51PM -6.9501 -57.6911 148° Southeast  Level Estimated
11:52PM -7.0436 -57.6323 148° Southeast  Level Estimated
11:53PM -7.1371 -57.5734 148° Southeast  Level Estimated
11:54PM -7.2306 -57.5145 148° Southeast  Level Estimated
11:55PM -7.3241 -57.4555 148° Southeast  Level Estimated
11:56PM -7.4176 -57.3966 148° Southeast  Level Estimated
11:57PM -7.5111 -57.3376 148° Southeast  Level Estimated
11:58PM -7.6046 -57.2786 148° Southeast  Level Estimated
11:59PM -7.6981 -57.2195 148° Southeast  Level Estimated
12:00AM -7.7915 -57.1605 148° Southeast  Level Estimated
12:01AM -7.8850 -57.1014 148° Southeast  Level Estimated
12:02AM -7.9784 -57.0423 148° Southeast  Level Estimated
12:03AM -8.0718 -56.9831 148° Southeast  Level Estimated
12:04AM -8.1653 -56.9239 148° Southeast  Level Estimated
12:05AM -8.2587 -56.8647 148° Southeast  Level Estimated
12:06AM -8.3521 -56.8055 148° Southeast  Level Estimated
12:07AM -8.4455 -56.7462 148° Southeast  Level Estimated
12:08AM -8.5389 -56.6870 148° Southeast  Level Estimated
12:09AM -8.6323 -56.6276 148° Southeast  Level Estimated
12:10AM -8.7256 -56.5683 148° Southeast  Level Estimated
12:11AM -8.8190 -56.5089 148° Southeast  Level Estimated
12:12AM -8.9123 -56.4495 148° Southeast  Level Estimated
12:13AM -9.0057 -56.3901 148° Southeast  Level Estimated
12:14AM -9.0990 -56.3306 148° Southeast  Level Estimated
12:15AM -9.1924 -56.2711 148° Southeast  Level Estimated
12:16AM -9.2857 -56.2116 148° Southeast  Level Estimated
12:17AM -9.3790 -56.1520 148° Southeast  Level Estimated
12:18AM -9.4723 -56.0924 148° Southeast  Level Estimated
12:19AM -9.5656 -56.0328 148° Southeast  Level Estimated
12:20AM -9.6588 -55.9732 148° Southeast  Level Estimated
12:21AM -9.7521 -55.9135 148° Southeast  Level Estimated
12:22AM -9.8454 -55.8537 148° Southeast  Level Estimated
12:23AM -9.9386 -55.7940 148° Southeast  Level Estimated
12:24AM -10.0318 -55.7342 148° Southeast  Level Estimated
12:25AM -10.1251 -55.6744 148° Southeast  Level Estimated
12:26AM -10.2183 -55.6145 148° Southeast  Level Estimated
12:27AM -10.3115 -55.5546 148° Southeast  Level Estimated
12:28AM -10.4047 -55.4947 148° Southeast  Level Estimated
12:29AM -10.4978 -55.4347 148° Southeast  Level Estimated
12:30AM -10.5910 -55.3747 148° Southeast  Level Estimated
12:31AM -10.6842 -55.3147 148° Southeast  Level Estimated
12:32AM -10.7773 -55.2546 148° Southeast  Level Estimated
12:33AM -10.8705 -55.1945 148° Southeast  Level Estimated
12:34AM -10.9636 -55.1343 148° Southeast  Level Estimated
12:35AM -11.0567 -55.0741 148° Southeast  Level Estimated
12:36AM -11.1498 -55.0139 148° Southeast  Level Estimated
12:37AM -11.2429 -54.9536 148° Southeast  Level Estimated
12:38AM -11.3359 -54.8933 148° Southeast  Level Estimated
12:39AM -11.4290 -54.8330 148° Southeast  Level Estimated
12:40AM -11.5220 -54.7726 148° Southeast  Level Estimated
12:41AM -11.6151 -54.7122 148° Southeast  Level Estimated
12:42AM -11.7081 -54.6517 148° Southeast  Level Estimated
12:43AM -11.8011 -54.5912 148° Southeast  Level Estimated
12:44AM -11.8941 -54.5307 148° Southeast  Level Estimated
12:45AM -11.9871 -54.4701 147° Southeast  Level Estimated
12:46AM -12.0801 -54.4095 147° Southeast  Level Estimated
12:47AM -12.1730 -54.3488 147° Southeast  Level Estimated
12:48AM -12.2660 -54.2881 147° Southeast  Level Estimated
12:49AM -12.3589 -54.2273 147° Southeast  Level Estimated
12:50AM -12.4518 -54.1665 147° Southeast  Level Estimated
12:51AM -12.5448 -54.1057 147° Southeast  Level Estimated
12:52AM -12.6376 -54.0448 147° Southeast  Level Estimated
12:53AM -12.7305 -53.9839 147° Southeast  Level Estimated
12:54AM -12.8234 -53.9229 147° Southeast  Level Estimated
12:55AM -12.9162 -53.8619 147° Southeast  Level Estimated
12:56AM -13.0091 -53.8008 147° Southeast  Level Estimated
12:57AM -13.1019 -53.7397 147° Southeast  Level Estimated
12:58AM -13.1947 -53.6785 147° Southeast  Level Estimated
12:59AM -13.2875 -53.6173 147° Southeast  Level Estimated
01:00AM -13.3803 -53.5561 147° Southeast  Level Estimated
01:01AM -13.4730 -53.4948 147° Southeast  Level Estimated
01:02AM -13.5658 -53.4334 147° Southeast  Level Estimated
01:03AM -13.6585 -53.3720 147° Southeast  Level Estimated
01:04AM -13.7512 -53.3106 147° Southeast  Level Estimated
01:05AM -13.8439 -53.2491 147° Southeast  Level Estimated
01:06AM -13.9366 -53.1876 147° Southeast  Level Estimated
01:07AM -14.0293 -53.1260 147° Southeast  Level Estimated
01:08AM -14.1220 -53.0643 147° Southeast  Level Estimated
01:09AM -14.2146 -53.0027 147° Southeast  Level Estimated
01:10AM -14.3072 -52.9409 147° Southeast  Level Estimated
01:11AM -14.3998 -52.8791 147° Southeast  Level Estimated
01:12AM -14.4924 -52.8173 147° Southeast  Level Estimated
01:13AM -14.5850 -52.7554 147° Southeast  Level Estimated
01:14AM -14.6776 -52.6934 147° Southeast  Level Estimated
01:15AM -14.7701 -52.6314 147° Southeast  Level Estimated
01:16AM -14.8626 -52.5694 147° Southeast  Level Estimated
01:17AM -14.9551 -52.5073 147° Southeast  Level Estimated
01:18AM -15.0476 -52.4451 147° Southeast  Level Estimated
01:19AM -15.1401 -52.3829 147° Southeast  Level Estimated
01:20AM -15.2326 -52.3206 147° Southeast  Level Estimated
01:21AM -15.3250 -52.2583 147° Southeast  Level Estimated
01:22AM -15.4174 -52.1959 147° Southeast  Level Estimated
01:23AM -15.5098 -52.1335 147° Southeast  Level Estimated
01:24AM -15.6022 -52.0710 147° Southeast  Level Estimated
01:25AM -15.6946 -52.0085 147° Southeast  Level Estimated
01:26AM -15.7870 -51.9459 147° Southeast  Level Estimated
01:27AM -15.8793 -51.8832 147° Southeast  Level Estimated
01:28AM -15.9716 -51.8205 147° Southeast  Level Estimated
01:29AM -16.0639 -51.7577 147° Southeast  Level Estimated
01:30AM -16.1562 -51.6949 147° Southeast  Level Estimated
01:31AM -16.2485 -51.6320 147° Southeast  Level Estimated
01:32AM -16.3407 -51.5691 147° Southeast  Level Estimated
01:33AM -16.4330 -51.5061 147° Southeast  Level Estimated
01:34AM -16.5252 -51.4430 147° Southeast  Level Estimated
01:35AM -16.6174 -51.3799 147° Southeast  Level Estimated
01:36AM -16.7095 -51.3167 147° Southeast  Level Estimated
01:37AM -16.8017 -51.2534 147° Southeast  Level Estimated
01:37AM -18.7850 -50.0070 147° Southeast 460 529 33,000  Level FlightAware
01:37AM -18.8000 -49.9950 143° Southeast 460 529 33,000  Level FlightAware
01:38AM -18.8730 -49.9350 142° Southeast 460 529 33,000  Level FlightAware
01:39AM -18.9600 -49.8630 142° Southeast 460 529 33,000  Level FlightAware
01:39AM -19.0300 -49.8060 142° Southeast 460 529 33,000  Level FlightAware
01:40AM -19.0640 -49.7770 141° Southeast 460 529 33,000  Level FlightAware
01:40AM -19.1170 -49.7340 143° Southeast 460 529 33,000  Level FlightAware
01:41AM -19.2910 -49.5960 143° Southeast 466 536 33,000  Level FlightAware
01:42AM -19.3490 -49.5480 142° Southeast 468 539 33,000  Level FlightAware
01:43AM -19.4100 -49.4980 142° Southeast 467 537 33,000  Level FlightAware
01:44AM -19.5080 -49.4180 142° Southeast 468 539 33,000  Level FlightAware
01:44AM -19.5750 -49.3640 143° Southeast 470 541 33,000  Level FlightAware
01:45AM -19.6850 -49.2730 142° Southeast 471 542 33,000  Level FlightAware
01:46AM -19.7350 -49.2320 142° Southeast 472 543 33,000  Level FlightAware
01:47AM -19.8140 -49.1670 142° Southeast 472 543 33,000  Level FlightAware
01:47AM -19.8650 -49.1250 142° Southeast 472 543 33,000  Level FlightAware
01:48AM -19.9350 -49.0670 142° Southeast 472 543 33,000  Level FlightAware
01:48AM -19.9960 -49.0160 142° Southeast 471 542 33,000  Level FlightAware
01:49AM -20.0490 -48.9720 142° Southeast 470 541 33,000  Level FlightAware
01:49AM -20.1080 -48.9230 142° Southeast 469 540 33,000  Level FlightAware
01:50AM -20.1670 -48.8750 143° Southeast 468 539 33,000  Level FlightAware
01:51AM -20.2350 -48.8190 142° Southeast 467 537 33,000  Level FlightAware
01:51AM -20.2930 -48.7700 142° Southeast 467 537 33,000  Level FlightAware
01:52AM -20.3440 -48.7280 142° Southeast 467 537 33,000  Level FlightAware
01:52AM -20.4060 -48.6760 142° Southeast 467 537 33,000  Level FlightAware
01:53AM -20.5230 -48.5800 142° Southeast 466 536 33,000  Level FlightAware
01:54AM -20.5850 -48.5360 146° Southeast 465 535 33,000  Level FlightAware
01:55AM -20.6590 -48.4850 147° Southeast 466 536 33,000  Level FlightAware
01:55AM -20.7180 -48.4440 147° Southeast 465 535 33,000  Level FlightAware
01:56AM -20.7790 -48.4000 146° Southeast 465 535 33,000  Level FlightAware
01:57AM -20.8820 -48.3260 146° Southeast 464 534 33,000  Level FlightAware
01:58AM -20.9770 -48.2590 147° Southeast 448 516 33,000  Level FlightAware
01:59AM -21.0970 -48.1720 146° Southeast 450 518 33,000  Level FlightAware
01:59AM -21.1530 -48.1320 146° Southeast 450 518 33,000  Level FlightAware
02:00AM -21.2490 -48.0630 146° Southeast 450 518 33,000  Level FlightAware
02:01AM -21.3050 -48.0230 146° Southeast 449 517 33,000  Level FlightAware
02:01AM -21.3610 -47.9830 146° Southeast 448 516 33,000  Level FlightAware
02:02AM -21.4570 -47.9130 146° Southeast 444 511 33,000  Level FlightAware
02:03AM -21.5040 -47.8800 147° Southeast 441 507 33,000  Level FlightAware
02:03AM -21.5590 -47.8400 146° Southeast 441 507 33,000  Level FlightAware
02:04AM -21.6160 -47.7990 146° Southeast 439 505 33,000  Level FlightAware
02:04AM -21.6800 -47.7520 146° Southeast 438 504 33,000  Level FlightAware
02:05AM -21.7430 -47.7070 146° Southeast 440 506 33,000  Level FlightAware
02:06AM -21.8040 -47.6630 146° Southeast 440 506 33,000  Level FlightAware
02:06AM -21.8730 -47.6120 146° Southeast 442 509 33,000  Level FlightAware
02:07AM -21.9680 -47.5430 146° Southeast 439 505 33,000 -240 Level FlightAware
02:08AM -22.0370 -47.4930 146° Southeast 443 510 32,700 -1,140 Descending FlightAware
02:09AM -22.1510 -47.4100 146° Southeast 442 509 31,000 -1,740 Descending FlightAware
02:10AM -22.2170 -47.3610 146° Southeast 436 502 29,600 -2,160 Descending FlightAware
02:10AM -22.2780 -47.3170 146° Southeast 430 495 28,300 -2,100 Descending FlightAware
02:11AM -22.3350 -47.2750 146° Southeast 426 490 27,000 -1,500 Descending FlightAware
02:11AM -22.3800 -47.2420 146° Southeast 406 467 26,700 -1,140 Descending FlightAware
02:12AM -22.4360 -47.2010 146° Southeast 386 444 25,900 -1,920 Descending FlightAware
02:13AM -22.5390 -47.1260 146° Southeast 382 440 23,300 -1,980 Descending FlightAware
02:14AM -22.5870 -47.0930 148° Southeast 365 420 22,500 -1,920 Descending FlightAware
02:14AM -22.6480 -47.0680 159° South 360 414 21,000 -2,400 Descending FlightAware
02:15AM -22.7450 -47.0270 159° South 346 398 18,500 -2,520 Descending FlightAware
02:16AM -22.7970 -47.0050 159° South 349 402 17,000 -2,760 Descending FlightAware
02:17AM -22.8540 -46.9820 160° South 365 420 15,300 -2,220 Descending FlightAware
02:17AM -22.9070 -46.9590 158° South 359 413 14,400 -1,740 Descending FlightAware
02:18AM -22.9770 -46.9300 159° South 333 383 13,000 -1,800 Descending FlightAware
02:19AM -23.0690 -46.8910 159° South 312 359 11,100 -1,680 Descending FlightAware
02:20AM -23.1220 -46.8690 159° South 308 354 10,100 -1,560 Descending FlightAware
02:20AM -23.1630 -46.8510 158° South 297 342 9,300 -1,560 Descending FlightAware
02:21AM -23.2000 -46.8360 160° South 291 335 8,600 -1,620 Descending FlightAware
02:21AM -23.2570 -46.8120 159° South 274 315 7,300 -1,200 Descending FlightAware
02:22AM -23.3040 -46.7920 159° South 258 297 6,900 -420 Descending FlightAware
02:23AM -23.3320 -46.7800 159° South 245 282 6,900  Level FlightAware
02:23AM -23.3720 -46.7620 158° South 220 253 6,900 -420 Level FlightAware
02:24AM -23.4010 -46.7350 139° Southeast 191 220 6,400 -1,080 Descending FlightAware
02:24AM -23.4170 -46.7200 139° Southeast 193 222 5,800 -1,200 Descending FlightAware
02:25AM -23.4340 -46.7050 141° Southeast 193 222 5,400 -900 Descending FlightAware
02:26AM -23.4610 -46.6630 125° Southeast 166 191 4,600 -600 Descending FlightAware
02:26AM -23.4710 -46.6390 114° Southeast 170 196 4,600 -120 Level FlightAware
02:27AM -23.4710 -46.6080 90° East 162 186 4,500 -480 Descending FlightAware
02:27AM -23.4640 -46.5820 74° East 150 173 4,000 -840 Descending FlightAware
02:28AM -23.4590 -46.5630 74° East 146 168 3,700 -840 Descending FlightAware
02:28AM -23.4530 -46.5380 75° East 144 166 3,200 -720 Descending FlightAware
02:29AM -23.4450 -46.5110 72° East 143 165 2,800 -720 Descending FlightAware
02:30AM -23.4380 -46.4850 74° East 140 161 2,300 -840 Descending FlightAware
02:30AM -23.4340 -46.4700 74° East 80 92 -4,980 Descending FlightAware
02:31AM -23.4320 -46.4610 76° East 80 92  Level FlightAware